CDT,Max TemperatureF,Mean TemperatureF,Min TemperatureF,Max Dew PointF,MeanDew PointF,Min DewpointF,Max Humidity, Mean Humidity, Min Humidity, Max Sea Level PressureIn, Mean Sea Level PressureIn, Min Sea Level PressureIn, Max VisibilityMiles, Mean VisibilityMiles, Min VisibilityMiles, Max Wind SpeedMPH, Mean Wind SpeedMPH, Max Gust SpeedMPH,PrecipitationIn, CloudCover, Events, WindDirDegrees
2012-8-1,93,80,68,73,67,61,84,67,50,29.93,29.85,29.76,10,10,9,21,8,31,0.00,0,Rain,213
2012-8-2,87,78,69,67,63,59,81,58,40,29.86,29.83,29.79,10,10,10,14,6,21,0.00,1,,339
2012-8-3,90,78,66,68,65,62,88,65,40,29.89,29.83,29.73,10,9,1,33,7,55,0.36,2,Rain-Thunderstorm,144
2012-8-4,79,72,66,65,62,54,94,79,45,29.94,29.85,29.74,10,10,7,20,10,25,0.18,4,Rain-Thunderstorm,242
2012-8-5,77,67,59,56,52,48,80,59,40,30.18,30.11,29.96,10,10,10,18,10,29,0.00,0,,291
2012-8-6,86,70,57,66,59,54,87,65,41,30.12,30.03,29.91,10,10,10,12,6,,0.00,0,,197
2012-8-7,87,78,68,67,59,51,93,58,30,29.99,29.96,29.91,10,10,9,14,3,,0.00,0,,355
2012-8-8,79,72,64,63,61,59,87,70,56,30.00,29.96,29.92,10,10,10,13,5,20,0.00,4,Rain-Thunderstorm,65
2012-8-9,78,69,60,63,59,54,97,75,50,30.09,30.00,29.95,10,9,4,16,6,26,0.01,3,,356
2012-8-10,78,68,57,55,52,50,87,64,39,30.16,30.11,30.08,10,10,10,9,7,18,0.00,1,,20
2012-8-11,77,64,53,55,52,47,94,64,37,30.11,30.06,30.00,10,10,2,8,2,,0.00,0,,211
2012-8-12,66,64,60,60,58,55,93,81,68,30.02,30.00,29.99,10,10,10,6,2,,0.03,6,Rain,247
2012-8-13,81,68,55,62,57,53,97,70,40,30.04,29.99,29.95,10,10,6,16,4,,0.01,1,,298
2012-8-14,79,69,59,60,55,49,83,61,36,29.97,29.93,29.86,10,10,4,8,3,,0.00,4,Rain,35
2012-8-15,82,73,64,67,62,55,96,77,54,29.86,29.79,29.68,10,8,0,16,8,23,1.45,6,Fog-Rain-Thunderstorm,158
2012-8-16,72,64,55,66,54,48,83,67,45,30.02,29.87,29.76,10,10,10,18,13,28,0.00,5,,316
2012-8-17,73,62,52,50,46,43,80,57,35,30.11,30.06,30.02,10,10,7,8,5,,0.00,0,,316
2012-8-18,78,66,53,57,51,46,90,61,32,30.03,30.00,29.95,10,10,9,12,4,20,0.10,2,Rain-Thunderstorm,244
2012-8-19,75,66,57,57,52,45,90,66,33,30.02,29.99,29.96,10,9,2,12,6,16,0.13,3,Rain,342
2012-8-20,78,64,52,53,47,43,83,54,31,30.03,30.01,29.98,10,10,8,9,3,,0.00,0,,328
2012-8-21,79,66,52,54,51,47,89,60,33,30.08,30.03,29.98,10,10,10,10,3,,0.00,0,,184
2012-8-22,79,70,61,62,57,50,83,67,48,29.99,29.93,29.86,10,10,7,15,7,18,0.04,2,Rain-Thunderstorm,147
2012-8-23,87,77,68,66,62,56,84,61,48,29.88,29.83,29.75,10,10,7,22,10,37,0.06,2,Rain-Thunderstorm,193
2012-8-24,89,77,66,70,65,61,87,70,53,29.84,29.81,29.76,10,10,8,15,10,25,0.02,1,Rain-Thunderstorm,182
2012-8-25,73,70,66,67,64,61,87,80,64,29.94,29.91,29.86,10,9,6,10,6,17,0.12,5,Rain,175
2012-8-26,84,74,66,67,64,62,94,81,49,30.03,29.96,29.93,10,6,2,7,3,,0.01,6,,216
2012-8-27,84,73,62,63,59,55,93,65,39,30.13,30.09,30.04,10,10,6,8,2,,0.00,0,,298
2012-8-28,84,75,66,67,63,58,79,67,54,30.12,30.04,29.96,10,10,9,13,6,,0.00,0,,103
2012-8-29,91,80,69,65,63,61,81,59,36,29.96,29.85,29.76,10,10,10,14,8,18,0.00,0,,132
2012-8-30,91,81,72,66,62,58,73,55,35,29.91,29.77,29.70,10,10,5,17,11,22,0.00,0,,232
2012-8-31,84,72,63,59,51,44,75,48,26,30.09,30.05,29.93,10,10,8,12,6,,0.00,0,,24